Time;durP1;ratioP1;P1;durP2;ratioP2;P2;SDS_P1;SDS_P2;PMS_P1;PMS_P2;Temp;Humidity;BMP_temperature;BMP_pressure;BME280_temperature;BME280_humidity;BME280_pressure;Samples;Min_cycle;Max_cycle;Signal;HPM_P1;HPM_P2
2021/01/07 00:00:11;;;;;;;27.07;16.00;;;;;;;0.95;94.19;99236.69;1733332;81;25315;-69
2021/01/07 00:02:43;;;;;;;25.07;15.40;;;;;;;0.95;94.10;99232.80;1733075;81;25085;-69
2021/01/07 00:05:10;;;;;;;24.57;15.03;;;;;;;0.94;94.07;99231.97;1733363;81;25145;-69
2021/01/07 00:07:36;;;;;;;24.23;14.27;;;;;;;0.98;94.14;99236.09;1733414;81;25718;-69
2021/01/07 00:10:04;;;;;;;19.10;13.50;;;;;;;1.04;94.12;99227.20;1733345;81;25081;-69
2021/01/07 00:12:31;;;;;;;22.00;13.53;;;;;;;1.02;93.99;99222.12;1733378;81;25141;-69
2021/01/07 00:14:58;;;;;;;19.13;12.83;;;;;;;0.97;94.13;99225.33;1733463;81;25601;-69
2021/01/07 00:17:24;;;;;;;17.80;12.43;;;;;;;0.98;94.05;99231.37;1733330;81;25849;-70
2021/01/07 00:19:51;;;;;;;19.70;13.07;;;;;;;1.02;94.06;99223.84;1733375;81;25350;-70
2021/01/07 00:22:18;;;;;;;21.73;13.10;;;;;;;0.99;94.00;99223.55;1733313;81;25426;-69
2021/01/07 00:24:45;;;;;;;19.93;13.57;;;;;;;0.97;94.00;99225.33;1733440;81;25286;-70
2021/01/07 00:27:11;;;;;;;19.33;12.80;;;;;;;0.99;93.97;99220.95;1733404;81;25157;-70
2021/01/07 00:29:38;;;;;;;19.67;12.73;;;;;;;0.95;93.94;99225.03;1733400;81;25205;-70
2021/01/07 00:32:06;;;;;;;22.00;14.27;;;;;;;0.95;94.05;99220.69;1733269;81;25566;-69
2021/01/07 00:34:32;;;;;;;19.43;12.70;;;;;;;0.95;94.03;99217.27;1733374;81;25287;-69
2021/01/07 00:36:59;;;;;;;22.40;14.63;;;;;;;0.94;94.05;99222.91;1734294;82;25297;-70
2021/01/07 00:39:26;;;;;;;23.33;14.43;;;;;;;0.93;94.02;99227.69;1752096;81;25100;-70
2021/01/07 00:41:57;;;;;;;21.23;14.40;;;;;;;0.91;94.09;99219.98;1752106;81;25315;-69
2021/01/07 00:44:32;;;;;;;19.57;13.40;;;;;;;1.00;94.20;99221.78;1853027;76;27417;-69
2021/01/07 00:46:59;;;;;;;20.60;14.00;;;;;;;0.90;94.07;99225.23;1822315;78;25195;-68
2021/01/07 00:49:25;;;;;;;19.43;13.40;;;;;;;0.89;94.11;99224.86;1792735;78;25334;-69
2021/01/07 00:51:52;;;;;;;20.33;13.67;;;;;;;0.87;94.14;99232.70;1792625;78;25230;-69
2021/01/07 00:54:22;;;;;;;19.20;13.37;;;;;;;0.89;94.23;99224.40;1789963;80;25260;-69
2021/01/07 00:56:48;;;;;;;19.70;12.80;;;;;;;0.92;94.25;99220.82;1790059;79;25296;-69
2021/01/07 00:59:17;;;;;;;19.10;12.33;;;;;;;0.91;94.25;99228.22;1789998;79;25292;-68
2021/01/07 01:01:46;;;;;;;17.80;12.07;;;;;;;0.94;94.24;99229.38;1789894;78;25269;-68
2021/01/07 01:04:14;;;;;;;15.83;11.70;;;;;;;0.93;94.10;99230.28;1789948;79;25293;-68
2021/01/07 01:06:41;;;;;;;18.87;12.43;;;;;;;0.90;94.20;99233.83;1761433;79;25363;-69
2021/01/07 01:09:08;;;;;;;18.93;13.03;;;;;;;0.96;94.29;99238.37;1789900;80;25336;-68
2021/01/07 01:11:43;;;;;;;17.37;12.30;;;;;;;0.96;94.24;99235.80;1790017;80;25244;-69
2021/01/07 01:14:12;;;;;;;16.77;11.57;;;;;;;0.98;94.21;99241.27;1790011;79;25220;-69
2021/01/07 01:16:39;;;;;;;16.63;11.40;;;;;;;0.98;94.15;99240.44;1789110;80;25262;-68
2021/01/07 01:19:06;;;;;;;15.80;11.47;;;;;;;0.99;94.24;99237.78;1790021;80;25261;-68
2021/01/07 01:21:33;;;;;;;18.63;11.83;;;;;;;0.99;94.09;99241.67;1789962;79;25613;-69
2021/01/07 01:24:00;;;;;;;16.93;12.30;;;;;;;0.95;94.05;99239.27;1790081;79;25198;-68
2021/01/07 01:26:27;;;;;;;15.80;11.13;;;;;;;0.92;94.10;99230.75;1789871;79;25273;-69
2021/01/07 01:28:53;;;;;;;17.83;12.20;;;;;;;0.93;94.14;99240.64;1789999;80;25273;-68
2021/01/07 01:31:20;;;;;;;16.90;11.37;;;;;;;0.89;94.25;99236.52;1789980;79;25273;-68
2021/01/07 01:33:47;;;;;;;15.67;11.10;;;;;;;0.90;94.21;99240.77;1790119;79;25328;-68
2021/01/07 01:36:14;;;;;;;15.30;10.50;;;;;;;0.92;94.29;99241.53;1789967;80;25186;-68
2021/01/07 01:38:41;;;;;;;14.80;10.33;;;;;;;0.91;94.23;99243.29;1789978;78;25221;-68
2021/01/07 01:41:08;;;;;;;14.83;10.70;;;;;;;0.90;94.25;99244.19;1789993;80;25273;-68
2021/01/07 01:43:34;;;;;;;15.47;10.63;;;;;;;0.88;94.22;99246.48;1790213;78;25297;-68
2021/01/07 01:46:02;;;;;;;15.17;10.20;;;;;;;0.88;94.35;99242.12;1790531;80;25294;-68
2021/01/07 01:48:29;;;;;;;16.03;10.70;;;;;;;0.90;94.40;99250.66;1790543;80;25771;-68
2021/01/07 01:50:55;;;;;;;15.10;10.53;;;;;;;0.93;94.37;99247.11;1790490;78;25131;-68
2021/01/07 01:53:22;;;;;;;14.80;10.23;;;;;;;0.93;94.33;99241.94;1765920;80;25162;-71
2021/01/07 01:55:49;;;;;;;14.60;10.30;;;;;;;0.88;94.31;99238.70;1789912;78;25295;-68
2021/01/07 01:58:16;;;;;;;14.70;10.23;;;;;;;0.89;94.40;99236.52;1765678;80;25261;-68
2021/01/07 02:00:45;;;;;;;13.83;10.43;;;;;;;0.92;94.42;99237.65;1789968;79;25632;-68
2021/01/07 02:03:11;;;;;;;14.73;10.20;;;;;;;0.96;94.48;99235.80;1789941;78;25712;-68
2021/01/07 02:05:39;;;;;;;14.13;10.43;;;;;;;0.95;94.34;99244.45;1789962;78;25260;-69
2021/01/07 02:08:08;;;;;;;15.57;10.23;;;;;;;0.96;94.35;99237.09;1790044;78;25214;-68
2021/01/07 02:10:36;;;;;;;12.63;9.70;;;;;;;0.98;94.31;99240.44;1790041;80;25268;-68
2021/01/07 02:13:03;;;;;;;15.17;10.80;;;;;;;0.99;94.34;99228.72;1790071;80;25324;-69
2021/01/07 02:15:31;;;;;;;14.47;10.53;;;;;;;0.99;94.24;99230.02;1789891;80;25610;-69
2021/01/07 02:17:57;;;;;;;13.23;10.23;;;;;;;0.99;94.21;99227.42;1789959;78;25286;-69
2021/01/07 02:20:26;;;;;;;13.43;9.90;;;;;;;1.00;94.28;99234.73;1789998;80;25422;-68
2021/01/07 02:22:55;;;;;;;13.80;10.33;;;;;;;1.01;94.09;99232.08;1789857;80;25293;-70
2021/01/07 02:25:23;;;;;;;13.57;9.57;;;;;;;1.02;94.19;99227.73;1789712;78;25364;-68
2021/01/07 02:27:50;;;;;;;12.83;9.67;;;;;;;1.06;93.99;99230.13;1790059;79;25375;-69
2021/01/07 02:30:17;;;;;;;12.67;9.87;;;;;;;1.03;93.89;99226.83;1789909;79;25292;-69
2021/01/07 02:32:45;;;;;;;14.27;10.53;;;;;;;1.00;93.95;99229.09;1789858;78;25183;-69
2021/01/07 02:35:12;;;;;;;13.60;9.77;;;;;;;0.97;93.78;99229.22;1789961;79;25047;-69
2021/01/07 02:37:41;;;;;;;13.40;9.90;;;;;;;0.94;93.87;99229.38;1790093;78;25197;-69
2021/01/07 02:40:09;;;;;;;14.73;10.77;;;;;;;0.94;93.91;99230.67;1790001;78;25280;-69
2021/01/07 02:42:36;;;;;;;15.27;11.50;;;;;;;0.92;94.05;99228.16;1789902;78;25213;-69
2021/01/07 02:45:05;;;;;;;15.77;10.63;;;;;;;0.97;93.96;99228.39;1789428;80;25202;-69
2021/01/07 02:47:32;;;;;;;16.40;11.70;;;;;;;0.93;94.04;99227.69;1789510;79;25626;-69
2021/01/07 02:49:59;;;;;;;16.47;11.67;;;;;;;0.96;94.11;99224.97;1789533;78;25285;-69
2021/01/07 02:52:25;;;;;;;14.17;10.83;;;;;;;1.01;94.15;99226.06;1789363;80;25277;-70
2021/01/07 02:54:52;;;;;;;14.90;11.30;;;;;;;1.01;94.01;99223.48;1789338;79;25318;-69
2021/01/07 02:57:19;;;;;;;14.27;10.67;;;;;;;1.01;94.06;99220.89;1789245;78;25700;-69
2021/01/07 02:59:45;;;;;;;14.87;10.77;;;;;;;0.99;94.04;99223.55;1789475;79;25140;-69
2021/01/07 03:02:12;;;;;;;13.83;10.67;;;;;;;1.00;94.02;99222.61;1789287;79;25560;-70
2021/01/07 03:04:39;;;;;;;14.53;10.40;;;;;;;0.99;93.96;99220.95;1789428;79;25285;-69
2021/01/07 03:07:05;;;;;;;12.50;10.03;;;;;;;1.00;93.84;99226.50;1789320;80;25122;-69
2021/01/07 03:09:32;;;;;;;12.33;9.17;;;;;;;0.95;93.79;99226.33;1789370;78;25264;-69
2021/01/07 03:12:15;;;;;;;13.20;9.90;;;;;;;0.94;93.91;99222.91;1789354;80;25312;-69
2021/01/07 03:14:42;;;;;;;12.63;9.23;;;;;;;0.93;93.94;99218.63;1789193;78;25194;-70
2021/01/07 03:17:09;;;;;;;13.03;9.30;;;;;;;0.89;93.95;99223.56;1789412;80;25312;-70
2021/01/07 03:19:35;;;;;;;13.97;9.30;;;;;;;0.85;93.88;99220.25;1789473;80;25222;-69
2021/01/07 03:22:03;;;;;;;12.27;9.37;;;;;;;0.81;93.94;99224.36;1789237;79;25739;-69
2021/01/07 03:24:31;;;;;;;10.57;8.53;;;;;;;0.83;94.09;99224.66;1789268;79;25277;-68
2021/01/07 03:26:58;;;;;;;11.70;9.27;;;;;;;0.79;94.01;99224.86;1789246;79;25309;-68
2021/01/07 03:29:25;;;;;;;11.10;9.07;;;;;;;0.77;94.19;99217.16;1789469;80;25735;-69
2021/01/07 03:31:51;;;;;;;10.80;8.63;;;;;;;0.77;94.24;99222.33;1789245;79;25313;-68
2021/01/07 03:34:18;;;;;;;10.37;8.43;;;;;;;0.79;94.26;99223.56;1789231;80;25762;-68
2021/01/07 03:36:45;;;;;;;12.67;9.33;;;;;;;0.79;94.20;99228.30;1789223;78;25352;-68
2021/01/07 03:39:11;;;;;;;10.07;8.30;;;;;;;0.81;94.26;99223.06;1789332;80;25193;-69
2021/01/07 03:41:38;;;;;;;10.87;8.00;;;;;;;0.80;94.11;99225.25;1789262;80;25628;-68
2021/01/07 03:44:05;;;;;;;12.43;8.60;;;;;;;0.78;94.22;99227.91;1789295;80;25281;-69
2021/01/07 03:46:33;;;;;;;10.00;8.30;;;;;;;0.76;94.15;99223.26;1789940;79;25293;-69
2021/01/07 03:49:00;;;;;;;10.63;8.03;;;;;;;0.76;94.31;99215.49;1789851;80;25210;-69
2021/01/07 03:51:26;;;;;;;9.40;7.37;;;;;;;0.76;94.18;99221.97;1789865;78;25313;-68
2021/01/07 03:53:53;;;;;;;9.17;7.40;;;;;;;0.72;94.30;99226.44;1789993;78;25288;-68
2021/01/07 03:56:20;;;;;;;10.30;7.80;;;;;;;0.75;94.42;99225.45;1789798;80;25182;-69
2021/01/07 03:58:46;;;;;;;9.60;7.33;;;;;;;0.73;94.37;99221.63;1790007;78;25672;-69
2021/01/07 04:01:13;;;;;;;8.63;6.77;;;;;;;0.77;94.49;99221.50;1789926;78;25218;-68
2021/01/07 04:03:40;;;;;;;8.27;6.87;;;;;;;0.80;94.47;99220.08;1789765;78;25303;-68
2021/01/07 04:06:07;;;;;;;11.20;7.80;;;;;;;0.81;94.15;99223.89;1789904;78;25242;-69
2021/01/07 04:08:33;;;;;;;8.10;6.80;;;;;;;0.74;94.09;99227.20;1789853;80;25320;-68
2021/01/07 04:11:00;;;;;;;7.93;6.63;;;;;;;0.73;94.17;99230.69;1789829;78;25744;-68
2021/01/07 04:13:26;;;;;;;8.50;6.73;;;;;;;0.72;94.14;99229.45;1789865;79;25328;-69
2021/01/07 04:15:53;;;;;;;8.10;6.97;;;;;;;0.69;94.31;99233.04;1789821;80;25339;-68
2021/01/07 04:18:20;;;;;;;8.20;6.93;;;;;;;0.71;94.44;99235.09;1789928;80;25315;-69
2021/01/07 04:20:46;;;;;;;9.70;7.03;;;;;;;0.70;94.36;99234.73;1789811;78;25222;-68
2021/01/07 04:23:13;;;;;;;10.07;7.30;;;;;;;0.68;94.42;99232.64;1789844;80;25185;-68
2021/01/07 04:25:41;;;;;;;8.90;6.17;;;;;;;0.66;94.31;99233.17;1789747;78;25190;-69
2021/01/07 04:28:07;;;;;;;9.17;7.70;;;;;;;0.65;94.47;99234.06;1789952;78;25699;-68
2021/01/07 04:30:34;;;;;;;9.53;8.10;;;;;;;0.66;94.39;99225.41;1789850;80;25740;-69
2021/01/07 04:33:00;;;;;;;9.20;7.47;;;;;;;0.62;94.50;99230.34;1789686;80;25222;-68
2021/01/07 04:35:27;;;;;;;8.87;7.07;;;;;;;0.63;94.59;99226.82;1789878;80;25249;-68
2021/01/07 04:37:54;;;;;;;9.07;7.53;;;;;;;0.66;94.53;99230.58;1789767;78;25383;-68
2021/01/07 04:40:20;;;;;;;9.73;8.20;;;;;;;0.61;94.49;99223.93;1789943;79;25201;-68
2021/01/07 04:42:47;;;;;;;10.83;8.20;;;;;;;0.67;94.55;99232.70;1789875;78;25260;-69
2021/01/07 04:45:14;;;;;;;11.53;8.40;;;;;;;0.62;94.43;99226.45;1789656;78;25603;-69
2021/01/07 04:47:41;;;;;;;13.50;9.13;;;;;;;0.62;94.52;99229.47;1789908;79;25265;-69
2021/01/07 04:50:09;;;;;;;11.40;8.33;;;;;;;0.62;94.55;99222.57;1789772;78;25213;-68
2021/01/07 04:52:35;;;;;;;11.20;8.23;;;;;;;0.65;94.70;99224.17;1789956;80;25070;-68
2021/01/07 04:55:02;;;;;;;11.17;8.53;;;;;;;0.66;94.56;99225.87;1789884;80;25625;-68
2021/01/07 04:57:29;;;;;;;13.07;9.07;;;;;;;0.65;94.47;99222.41;1789703;78;25265;-68
2021/01/07 04:59:56;;;;;;;12.53;9.40;;;;;;;0.65;94.48;99221.58;1789696;78;25272;-68
2021/01/07 05:02:23;;;;;;;12.90;8.93;;;;;;;0.63;94.49;99222.94;1789836;78;25186;-68
2021/01/07 05:04:54;;;;;;;12.27;8.53;;;;;;;0.67;94.41;99224.51;1789823;80;25257;-68
2021/01/07 05:07:22;;;;;;;11.17;8.97;;;;;;;0.63;94.38;99225.53;1789939;78;25312;-68
2021/01/07 05:10:01;;;;;;;11.83;9.20;;;;;;;0.63;94.46;99232.00;1789701;78;25115;-69
2021/01/07 05:12:28;;;;;;;13.67;9.70;;;;;;;0.64;94.42;99227.69;1789889;78;25605;-69
2021/01/07 05:14:55;;;;;;;14.70;10.03;;;;;;;0.63;94.40;99228.12;1789750;78;25175;-68
2021/01/07 05:17:21;;;;;;;11.67;9.50;;;;;;;0.65;94.46;99230.64;1789827;78;25619;-68
2021/01/07 05:19:48;;;;;;;12.07;8.13;;;;;;;0.67;94.18;99230.12;1789801;80;25139;-68
2021/01/07 05:22:15;;;;;;;11.40;9.57;;;;;;;0.63;94.39;99230.70;1789774;80;25211;-68
2021/01/07 05:24:42;;;;;;;12.93;9.70;;;;;;;0.64;94.20;99233.69;1789837;78;25202;-68
2021/01/07 05:30:11;;;;;;;15.07;12.40;;;;;;;0.70;94.17;99232.14;1860525;75;26868;-68
2021/01/07 05:32:42;;;;;;;14.10;9.87;;;;;;;0.60;93.96;99239.89;1831824;76;25037;-68
2021/01/07 05:35:12;;;;;;;12.70;9.93;;;;;;;0.62;93.95;99245.00;1783251;79;25337;-68
2021/01/07 05:37:39;;;;;;;12.37;10.03;;;;;;;0.56;93.99;99240.95;1816363;78;25208;-69
2021/01/07 05:40:07;;;;;;;15.73;10.80;;;;;;;0.57;94.18;99243.93;1809633;78;25188;-68
2021/01/07 05:42:43;;;;;;;14.47;10.83;;;;;;;0.63;94.12;99242.81;1803707;78;25326;-69
2021/01/07 05:45:13;;;;;;;13.83;10.07;;;;;;;0.63;94.05;99242.81;1819200;78;25136;-68
2021/01/07 05:47:51;;;;;;;14.53;10.83;;;;;;;0.61;94.03;99245.47;1797169;78;25338;-69
2021/01/07 05:50:20;;;;;;;12.93;9.27;;;;;;;0.64;93.86;99249.69;1786101;78;25291;-69
2021/01/07 05:52:48;;;;;;;12.63;9.80;;;;;;;0.58;93.90;99240.41;1777228;80;25239;-69
2021/01/07 05:55:17;;;;;;;11.57;8.33;;;;;;;0.57;93.96;99245.66;1765095;80;25269;-68
2021/01/07 05:57:44;;;;;;;16.37;10.87;;;;;;;0.61;93.78;99245.47;1779875;80;25349;-69
2021/01/07 06:00:16;;;;;;;12.40;9.10;;;;;;;0.57;93.79;99243.07;1784627;80;25245;-68
2021/01/07 06:02:44;;;;;;;14.67;10.40;;;;;;;0.52;94.02;99242.83;1757671;80;25064;-69
2021/01/07 06:05:12;;;;;;;14.83;10.40;;;;;;;0.53;94.14;99244.95;1770981;80;25258;-69
2021/01/07 06:07:39;;;;;;;15.83;10.57;;;;;;;0.47;94.21;99247.36;1769000;80;25067;-69
2021/01/07 06:10:09;;;;;;;19.47;12.67;;;;;;;0.50;94.34;99240.77;1767399;80;25747;-69
2021/01/07 06:12:36;;;;;;;17.67;11.97;;;;;;;0.44;94.42;99243.59;1774134;80;25285;-69
2021/01/07 06:15:12;;;;;;;12.80;9.00;;;;;;;0.47;94.53;99243.91;1772059;80;25740;-68
2021/01/07 06:17:39;;;;;;;17.47;11.23;;;;;;;0.49;94.48;99244.70;1758803;80;25355;-69
2021/01/07 06:20:20;;;;;;;16.60;11.97;;;;;;;0.46;94.52;99242.24;1731830;80;25227;-69
2021/01/07 06:22:53;;;;;;;16.97;11.40;;;;;;;0.50;94.48;99247.66;1756625;80;25250;-69
2021/01/07 06:25:22;;;;;;;16.30;9.87;;;;;;;0.48;94.51;99252.06;1772834;80;25063;-68
2021/01/07 06:27:51;;;;;;;12.20;8.63;;;;;;;0.45;94.49;99253.48;1768145;80;25179;-68
2021/01/07 06:30:23;;;;;;;19.90;12.07;;;;;;;0.48;94.50;99254.66;1765050;80;25119;-68
2021/01/07 06:33:07;;;;;;;21.67;11.93;;;;;;;0.46;94.55;99255.18;1784015;80;25344;-68
2021/01/07 06:35:37;;;;;;;18.33;10.97;;;;;;;0.44;94.61;99253.12;1785009;80;25613;-68
2021/01/07 06:38:04;;;;;;;16.97;10.43;;;;;;;0.45;94.67;99259.95;1763079;80;25412;-68
2021/01/07 06:40:30;;;;;;;20.37;11.73;;;;;;;0.45;94.67;99262.08;1762522;80;25571;-68
2021/01/07 06:42:57;;;;;;;17.13;10.93;;;;;;;0.45;94.71;99259.95;1753066;80;25379;-68
2021/01/07 06:45:25;;;;;;;17.77;11.23;;;;;;;0.50;94.72;99270.95;1732710;80;25296;-68
2021/01/07 06:47:54;;;;;;;17.87;11.90;;;;;;;0.47;94.60;99265.47;1764113;80;25397;-68
2021/01/07 06:50:21;;;;;;;18.83;12.77;;;;;;;0.47;94.72;99274.95;1783079;80;25254;-68
2021/01/07 06:52:48;;;;;;;17.63;12.40;;;;;;;0.50;94.65;99274.83;1782488;80;25744;-68
2021/01/07 06:55:20;;;;;;;19.53;13.73;;;;;;;0.52;94.67;99273.88;1776480;80;25621;-69
2021/01/07 06:57:56;;;;;;;14.60;11.43;;;;;;;0.50;94.63;99273.11;1777469;80;25214;-69
2021/01/07 07:00:25;;;;;;;15.80;10.50;;;;;;;0.53;94.65;99278.13;1782163;80;25182;-69
2021/01/07 07:03:07;;;;;;;15.50;11.23;;;;;;;0.53;94.52;99282.47;1777087;80;25633;-70
2021/01/07 07:05:37;;;;;;;15.10;10.93;;;;;;;0.49;94.41;99289.53;1755997;80;25192;-70
2021/01/07 07:08:14;;;;;;;16.27;10.87;;;;;;;0.53;94.42;99283.77;1767236;80;25573;-70
2021/01/07 07:10:56;;;;;;;15.07;10.17;;;;;;;0.50;94.26;99288.63;1752761;80;25329;-69
2021/01/07 07:13:28;;;;;;;15.57;10.60;;;;;;;0.48;94.30;99289.59;1741682;80;25759;-69
2021/01/07 07:15:55;;;;;;;18.80;10.53;;;;;;;0.45;94.45;99294.89;1777134;80;25764;-69
2021/01/07 07:18:36;;;;;;;13.63;9.83;;;;;;;0.48;94.42;99294.30;1707770;80;25189;-70
2021/01/07 07:21:21;;;;;;;14.17;10.20;;;;;;;0.47;94.29;99296.52;1755096;80;25314;-70
2021/01/07 07:23:48;;;;;;;15.17;10.87;;;;;;;0.46;94.42;99299.17;1777380;80;25064;-69
2021/01/07 07:26:37;;;;;;;18.97;13.80;;;;;;;0.50;94.24;99301.58;1763613;80;25565;-69
2021/01/07 07:29:07;;;;;;;19.47;13.77;;;;;;;0.47;94.32;99302.98;1772408;80;25348;-70
2021/01/07 07:31:39;;;;;;;21.10;16.10;;;;;;;0.46;94.31;99299.17;1776870;80;25786;-69
2021/01/07 07:34:06;;;;;;;20.63;14.40;;;;;;;0.48;94.27;99307.70;1757888;80;25872;-70
2021/01/07 07:36:33;;;;;;;18.17;14.00;;;;;;;0.49;94.29;99306.34;1783593;80;25147;-69
2021/01/07 07:39:00;;;;;;;19.80;14.50;;;;;;;0.53;94.26;99308.35;1767364;80;25667;-69
2021/01/07 07:41:27;;;;;;;19.33;13.40;;;;;;;0.55;94.21;99309.13;1781603;80;25191;-69
2021/01/07 07:43:55;;;;;;;14.73;10.07;;;;;;;0.60;94.17;99313.66;1778628;80;25633;-69
2021/01/07 07:46:25;;;;;;;12.90;9.77;;;;;;;0.66;94.01;99309.52;1775409;80;25071;-69
2021/01/07 07:49:00;;;;;;;11.57;8.00;;;;;;;0.66;93.89;99315.16;1767642;80;25171;-69
2021/01/07 07:51:26;;;;;;;11.27;8.43;;;;;;;0.68;93.64;99315.47;1766888;80;25836;-71
2021/01/07 07:54:06;;;;;;;9.67;7.90;;;;;;;0.77;93.27;99318.12;1767535;80;25216;-69
2021/01/07 07:56:33;;;;;;;9.73;8.13;;;;;;;0.76;93.25;99317.75;1777258;80;25737;-70
2021/01/07 07:59:01;;;;;;;9.83;7.83;;;;;;;0.74;93.14;99328.17;1781949;80;25332;-70
2021/01/07 08:01:37;;;;;;;10.33;7.80;;;;;;;0.83;92.92;99327.39;1783014;80;25341;-70
2021/01/07 08:04:06;;;;;;;10.67;8.30;;;;;;;0.83;92.68;99320.45;1764794;80;25638;-70
2021/01/07 08:06:36;;;;;;;16.47;10.40;;;;;;;0.80;92.82;99320.58;1776405;80;25265;-69
2021/01/07 08:09:08;;;;;;;10.33;7.93;;;;;;;0.87;92.99;99328.50;1763671;80;25210;-70
2021/01/07 08:11:54;;;;;;;10.10;7.83;;;;;;;0.91;92.75;99325.32;1762005;80;25749;-70
2021/01/07 08:14:25;;;;;;;9.27;7.73;;;;;;;1.00;92.55;99330.09;1777822;80;25320;-69
2021/01/07 08:16:58;;;;;;;9.17;7.30;;;;;;;0.99;91.86;99333.61;1767121;80;25274;-69
2021/01/07 08:19:34;;;;;;;9.20;7.60;;;;;;;0.91;92.15;99327.91;1769546;80;25253;-70
2021/01/07 08:22:01;;;;;;;9.30;7.40;;;;;;;0.94;92.44;99331.67;1777223;80;25199;-70
2021/01/07 08:24:28;;;;;;;9.33;7.47;;;;;;;1.02;91.71;99332.62;1782948;80;25725;-70
2021/01/07 08:27:19;;;;;;;9.27;7.60;;;;;;;0.96;91.74;99337.62;1762426;80;25218;-70
2021/01/07 08:29:49;;;;;;;7.80;6.43;;;;;;;1.00;91.38;99337.86;1767113;80;25120;-70
2021/01/07 08:32:18;;;;;;;7.90;6.40;;;;;;;1.00;91.71;99340.91;1777475;80;25700;-70
2021/01/07 08:34:46;;;;;;;8.33;6.43;;;;;;;1.02;91.46;99345.56;1741733;80;25597;-70
2021/01/07 08:37:17;;;;;;;8.90;7.30;;;;;;;0.95;91.07;99341.56;1775416;80;25280;-70
2021/01/07 08:39:44;;;;;;;11.13;8.20;;;;;;;0.90;91.29;99345.17;1771194;80;25236;-70
2021/01/07 08:42:10;;;;;;;9.90;8.40;;;;;;;0.91;91.28;99340.86;1752568;80;25160;-70
2021/01/07 08:44:37;;;;;;;11.63;9.30;;;;;;;0.92;91.22;99350.29;1766783;80;25345;-70
2021/01/07 08:47:05;;;;;;;18.33;12.93;;;;;;;0.83;91.34;99350.70;1777159;80;25274;-70
2021/01/07 08:49:32;;;;;;;14.00;11.53;;;;;;;0.80;91.55;99347.77;1748963;80;25269;-70
2021/01/07 08:52:00;;;;;;;16.63;12.57;;;;;;;0.84;91.66;99355.81;1763045;80;25256;-71
2021/01/07 08:54:27;;;;;;;14.43;10.83;;;;;;;0.84;91.70;99349.34;1771993;80;25693;-70
2021/01/07 08:56:55;;;;;;;13.80;9.60;;;;;;;0.87;91.54;99354.39;1770517;80;25278;-70
2021/01/07 08:59:37;;;;;;;12.87;10.40;;;;;;;1.00;90.80;99346.09;1766998;80;25289;-70
2021/01/07 09:02:12;;;;;;;12.67;9.93;;;;;;;0.88;91.26;99352.17;1803154;78;25410;-69
2021/01/07 09:04:40;;;;;;;11.03;8.83;;;;;;;0.95;91.39;99343.69;1771990;79;25578;-69
2021/01/07 09:07:18;;;;;;;9.10;7.53;;;;;;;0.96;91.44;99346.68;1770898;79;25408;-69
2021/01/07 09:09:54;;;;;;;13.40;9.43;;;;;;;0.99;91.53;99346.98;1795604;79;25288;-69
2021/01/07 09:12:32;;;;;;;13.70;11.10;;;;;;;1.04;91.52;99348.92;1790232;79;25897;-69
2021/01/07 09:15:09;;;;;;;12.47;9.80;;;;;;;1.16;91.25;99354.89;1792937;79;25221;-68
2021/01/07 09:17:52;;;;;;;15.30;11.77;;;;;;;1.18;90.91;99358.72;1795281;79;25300;-68
2021/01/07 09:20:21;;;;;;;14.73;11.77;;;;;;;1.19;90.95;99355.20;1791275;79;25272;-68
2021/01/07 09:22:48;;;;;;;14.23;10.83;;;;;;;1.21;91.21;99353.41;1786062;79;25771;-69
2021/01/07 09:25:17;;;;;;;13.07;11.03;;;;;;;1.33;91.08;99349.44;1762119;79;25664;-68
2021/01/07 09:27:47;;;;;;;13.10;10.90;;;;;;;1.34;91.20;99353.25;1765408;79;25291;-69
2021/01/07 09:30:15;;;;;;;14.27;11.07;;;;;;;1.45;91.12;99352.77;1785396;79;25096;-71
2021/01/07 09:32:43;;;;;;;14.20;10.93;;;;;;;1.52;90.63;99359.81;1781747;79;25075;-69
2021/01/07 09:35:11;;;;;;;15.70;12.53;;;;;;;1.54;90.84;99351.52;1784410;79;25108;-70
2021/01/07 09:37:38;;;;;;;14.60;9.97;;;;;;;1.63;90.72;99355.00;1785942;79;25286;-69
2021/01/07 09:40:06;;;;;;;12.80;10.53;;;;;;;1.68;90.33;99354.33;1789400;79;25252;-69
2021/01/07 09:42:33;;;;;;;15.37;10.67;;;;;;;1.67;90.00;99350.88;1785283;79;25147;-69
2021/01/07 09:45:01;;;;;;;12.37;9.93;;;;;;;1.77;89.74;99350.47;1776630;79;25111;-70
2021/01/07 09:47:30;;;;;;;17.60;11.53;;;;;;;1.80;89.55;99352.47;1783944;79;25225;-69
2021/01/07 09:49:58;;;;;;;13.30;10.93;;;;;;;1.81;89.50;99358.05;1770619;79;25200;-69
2021/01/07 09:52:25;;;;;;;13.47;10.47;;;;;;;1.88;89.69;99352.13;1765574;79;25136;-69
2021/01/07 09:54:52;;;;;;;15.47;11.83;;;;;;;1.96;89.67;99350.02;1769161;79;25325;-69
2021/01/07 09:57:19;;;;;;;17.23;12.73;;;;;;;2.07;89.43;99349.50;1778769;79;25159;-69
2021/01/07 09:59:47;;;;;;;16.37;12.73;;;;;;;2.16;88.92;99346.49;1769516;79;25241;-70
2021/01/07 10:02:13;;;;;;;16.93;12.97;;;;;;;2.17;89.22;99352.05;1772306;79;25182;-69
2021/01/07 10:04:44;;;;;;;15.80;11.60;;;;;;;2.29;88.39;99351.08;1753946;80;25483;-69
2021/01/07 10:07:12;;;;;;;13.70;11.03;;;;;;;2.31;87.55;99346.19;1757175;80;25303;-69
2021/01/07 10:09:39;;;;;;;12.27;9.93;;;;;;;2.22;87.36;99348.77;1773294;79;25171;-69
2021/01/07 10:12:06;;;;;;;13.83;10.83;;;;;;;2.25;87.45;99350.39;1792433;79;25242;-69
2021/01/07 10:14:35;;;;;;;13.27;9.93;;;;;;;2.27;86.58;99348.56;1786893;79;25068;-69
2021/01/07 10:17:05;;;;;;;12.37;9.80;;;;;;;2.22;86.44;99346.17;1768101;79;25636;-69
2021/01/07 10:19:34;;;;;;;11.50;9.63;;;;;;;2.17;86.12;99346.86;1785952;79;25062;-69
2021/01/07 10:22:10;;;;;;;16.37;12.73;;;;;;;2.10;86.92;99346.77;1790997;79;25201;-69
2021/01/07 10:24:46;;;;;;;11.10;9.53;;;;;;;2.14;87.17;99355.24;1782886;79;25119;-69
2021/01/07 10:27:18;;;;;;;12.90;10.77;;;;;;;2.22;86.89;99353.96;1734794;80;25125;-68
2021/01/07 10:29:48;;;;;;;13.30;10.23;;;;;;;2.12;86.81;99355.31;1774065;79;25068;-69
2021/01/07 10:32:18;;;;;;;13.80;11.03;;;;;;;2.09;86.80;99352.86;1740216;79;25271;-70
2021/01/07 10:34:47;;;;;;;11.07;9.53;;;;;;;2.07;86.62;99349.50;1774503;80;25148;-69
2021/01/07 10:37:18;;;;;;;14.10;10.97;;;;;;;2.01;86.69;99349.78;1782015;79;25502;-68
2021/01/07 10:39:48;;;;;;;15.47;12.23;;;;;;;2.00;86.29;99354.60;1767249;79;25080;-69
2021/01/07 10:42:19;;;;;;;12.57;9.73;;;;;;;1.94;86.18;99353.58;1791677;79;25166;-69
2021/01/07 10:44:47;;;;;;;12.33;9.77;;;;;;;1.98;86.26;99346.06;1740403;79;25187;-69
2021/01/07 10:47:15;;;;;;;12.07;9.23;;;;;;;1.90;86.74;99351.59;1778855;79;25198;-69
2021/01/07 10:49:46;;;;;;;11.50;9.33;;;;;;;1.88;86.80;99348.23;1790601;79;25071;-69
2021/01/07 10:52:50;;;;;;;11.00;9.10;;;;;;;1.88;86.86;99346.08;1793719;79;25091;-69
2021/01/07 10:55:23;;;;;;;12.37;9.70;;;;;;;1.81;87.09;99345.08;1750284;80;25173;-69
2021/01/07 10:58:32;;;;;;;13.17;10.10;;;;;;;1.76;87.23;99348.78;1778903;79;25170;-68
2021/01/07 11:01:33;;;;;;;13.97;9.93;;;;;;;1.76;87.00;99347.05;1784407;79;25667;-69
2021/01/07 11:04:27;;;;;;;13.00;10.47;;;;;;;1.71;87.26;99336.05;1783554;79;25142;-69
2021/01/07 11:07:08;;;;;;;16.00;11.67;;;;;;;1.68;87.15;99338.78;1780635;79;25613;-69
2021/01/07 11:09:35;;;;;;;16.07;11.67;;;;;;;1.63;87.45;99338.15;1795935;79;25079;-69
2021/01/07 11:12:09;;;;;;;16.37;11.73;;;;;;;1.63;87.55;99335.09;1762900;79;25127;-70
2021/01/07 11:15:05;;;;;;;16.87;11.47;;;;;;;1.67;87.69;99338.37;1778486;79;25338;-69
2021/01/07 11:17:34;;;;;;;16.67;11.43;;;;;;;1.75;87.68;99341.93;1777235;79;25560;-69
2021/01/07 11:20:04;;;;;;;16.87;11.20;;;;;;;1.72;87.04;99333.83;1789451;79;25182;-69
2021/01/07 11:22:34;;;;;;;17.87;12.07;;;;;;;1.65;87.36;99335.86;1735019;79;25170;-68
2021/01/07 11:25:01;;;;;;;15.73;11.03;;;;;;;1.73;87.07;99336.81;1768207;79;25301;-69
2021/01/07 11:27:30;;;;;;;16.50;10.70;;;;;;;1.71;87.22;99336.05;1781794;79;25662;-70
2021/01/07 11:29:58;;;;;;;16.07;12.00;;;;;;;1.72;87.39;99341.60;1769039;79;25195;-69
2021/01/07 11:32:24;;;;;;;14.73;10.57;;;;;;;1.67;87.46;99339.21;1744618;80;25130;-69
2021/01/07 11:34:51;;;;;;;14.60;10.73;;;;;;;1.69;87.75;99340.44;1764861;79;25145;-69
2021/01/07 11:37:49;;;;;;;15.40;11.43;;;;;;;1.72;87.88;99335.12;1787234;79;25143;-69
2021/01/07 11:40:37;;;;;;;15.73;12.00;;;;;;;1.69;87.82;99327.48;1773985;79;25159;-69
2021/01/07 11:43:46;;;;;;;16.77;12.40;;;;;;;1.63;88.15;99327.78;1782866;79;25206;-70